sensor_id;sensor_type;location;lat;lon;timestamp;pressure;altitude;pressure_sealevel;temperature;humidity
55070;BME280;40967;52.070;8.596;2023-02-15T00:01:45;101915.19;;;2.37;92.44
55070;BME280;40967;52.070;8.596;2023-02-15T00:04:15;101915.28;;;2.28;92.55
55070;BME280;40967;52.070;8.596;2023-02-15T00:06:41;101927.38;;;2.24;93.29
55070;BME280;40967;52.070;8.596;2023-02-15T00:09:07;101921.63;;;2.13;92.94
55070;BME280;40967;52.070;8.596;2023-02-15T00:11:33;101920.31;;;2.09;93.34
55070;BME280;40967;52.070;8.596;2023-02-15T00:16:41;101912.47;;;2.07;93.03
55070;BME280;40967;52.070;8.596;2023-02-15T00:19:08;101915.31;;;2.06;93.31
55070;BME280;40967;52.070;8.596;2023-02-15T00:21:34;101914.66;;;2.04;93.29
55070;BME280;40967;52.070;8.596;2023-02-15T00:24:02;101912.84;;;2.04;92.64
55070;BME280;40967;52.070;8.596;2023-02-15T00:26:28;101909.88;;;1.99;92.83
55070;BME280;40967;52.070;8.596;2023-02-15T00:28:53;101913.53;;;1.98;92.95
55070;BME280;40967;52.070;8.596;2023-02-15T00:31:19;101905.22;;;1.93;92.65
55070;BME280;40967;52.070;8.596;2023-02-15T00:33:45;101892.19;;;1.90;92.73
55070;BME280;40967;52.070;8.596;2023-02-15T00:36:11;101905.03;;;1.95;92.27
55070;BME280;40967;52.070;8.596;2023-02-15T00:38:37;101897.84;;;1.95;91.64
55070;BME280;40967;52.070;8.596;2023-02-15T00:41:05;101895.16;;;1.95;91.98
55070;BME280;40967;52.070;8.596;2023-02-15T00:43:32;101897.19;;;1.93;91.34
55070;BME280;40967;52.070;8.596;2023-02-15T00:45:58;101898.59;;;1.89;91.24
55070;BME280;40967;52.070;8.596;2023-02-15T00:48:24;101902.91;;;1.90;91.03
55070;BME280;40967;52.070;8.596;2023-02-15T00:50:52;101893.38;;;1.88;91.51
55070;BME280;40967;52.070;8.596;2023-02-15T00:53:18;101898.09;;;1.86;91.27
55070;BME280;40967;52.070;8.596;2023-02-15T00:55:44;101896.97;;;1.80;91.43
55070;BME280;40967;52.070;8.596;2023-02-15T00:58:10;101891.97;;;1.77;91.69
55070;BME280;40967;52.070;8.596;2023-02-15T01:00:35;101897.84;;;1.73;91.80
55070;BME280;40967;52.070;8.596;2023-02-15T01:03:01;101894.69;;;1.69;91.46
55070;BME280;40967;52.070;8.596;2023-02-15T01:05:27;101876.09;;;1.53;91.41
55070;BME280;40967;52.070;8.596;2023-02-15T01:07:52;101900.78;;;1.63;90.94
55070;BME280;40967;52.070;8.596;2023-02-15T01:10:18;101886.59;;;1.55;91.66
55070;BME280;40967;52.070;8.596;2023-02-15T01:12:43;101886.78;;;1.53;91.48
55070;BME280;40967;52.070;8.596;2023-02-15T01:15:09;101876.34;;;1.44;91.05
55070;BME280;40967;52.070;8.596;2023-02-15T01:17:34;101878.81;;;1.45;91.29
55070;BME280;40967;52.070;8.596;2023-02-15T01:20:00;101889.53;;;1.45;91.03
55070;BME280;40967;52.070;8.596;2023-02-15T01:22:25;101883.34;;;1.45;91.14
55070;BME280;40967;52.070;8.596;2023-02-15T01:24:51;101881.03;;;1.42;90.49
55070;BME280;40967;52.070;8.596;2023-02-15T01:27:16;101877.50;;;1.41;90.05
55070;BME280;40967;52.070;8.596;2023-02-15T01:29:42;101878.53;;;1.40;90.48
55070;BME280;40967;52.070;8.596;2023-02-15T01:32:07;101868.53;;;1.34;90.54
55070;BME280;40967;52.070;8.596;2023-02-15T01:34:33;101851.22;;;1.22;91.47
55070;BME280;40967;52.070;8.596;2023-02-15T01:36:58;101865.19;;;1.32;91.58
55070;BME280;40967;52.070;8.596;2023-02-15T01:39:24;101860.88;;;1.31;92.65
55070;BME280;40967;52.070;8.596;2023-02-15T01:41:49;101865.38;;;1.31;92.35
55070;BME280;40967;52.070;8.596;2023-02-15T01:52:44;101861.88;;;1.30;93.80
55070;BME280;40967;52.070;8.596;2023-02-15T01:55:13;101866.41;;;1.30;94.56
55070;BME280;40967;52.070;8.596;2023-02-15T01:57:39;101844.41;;;1.20;94.18
55070;BME280;40967;52.070;8.596;2023-02-15T02:00:06;101848.84;;;1.27;93.53
55070;BME280;40967;52.070;8.596;2023-02-15T02:02:31;101843.69;;;1.26;94.23
55070;BME280;40967;52.070;8.596;2023-02-15T02:05:00;101847.69;;;1.30;93.44
55070;BME280;40967;52.070;8.596;2023-02-15T02:07:29;101843.88;;;1.24;94.13
55070;BME280;40967;52.070;8.596;2023-02-15T02:09:56;101851.22;;;1.22;93.91
55070;BME280;40967;52.070;8.596;2023-02-15T02:12:23;101850.91;;;1.25;93.96
55070;BME280;40967;52.070;8.596;2023-02-15T02:14:49;101846.53;;;1.24;93.21
55070;BME280;40967;52.070;8.596;2023-02-15T02:22:57;101848.25;;;1.17;93.58
55070;BME280;40967;52.070;8.596;2023-02-15T02:33:51;101836.59;;;1.10;94.78
55070;BME280;40967;52.070;8.596;2023-02-15T02:45:16;101825.59;;;1.05;95.00
55070;BME280;40967;52.070;8.596;2023-02-15T02:49:43;101809.63;;;0.97;94.94
55070;BME280;40967;52.070;8.596;2023-02-15T02:57:41;101817.81;;;0.95;94.89
55070;BME280;40967;52.070;8.596;2023-02-15T03:00:09;101818.63;;;0.96;94.83
55070;BME280;40967;52.070;8.596;2023-02-15T03:02:39;101815.97;;;0.96;95.06
55070;BME280;40967;52.070;8.596;2023-02-15T03:05:12;101811.63;;;0.95;94.89
55070;BME280;40967;52.070;8.596;2023-02-15T03:07:41;101813.66;;;0.93;94.85
55070;BME280;40967;52.070;8.596;2023-02-15T03:10:08;101785.66;;;0.81;95.04
55070;BME280;40967;52.070;8.596;2023-02-15T03:12:37;101794.53;;;0.81;94.55
55070;BME280;40967;52.070;8.596;2023-02-15T03:15:16;101783.34;;;0.78;94.70
55070;BME280;40967;52.070;8.596;2023-02-15T03:17:48;101791.00;;;0.81;94.33
55070;BME280;40967;52.070;8.596;2023-02-15T03:20:20;101803.84;;;0.85;94.58
55070;BME280;40967;52.070;8.596;2023-02-15T03:22:53;101794.53;;;0.73;94.62
55070;BME280;40967;52.070;8.596;2023-02-15T03:25:26;101808.69;;;0.82;94.95
55070;BME280;40967;52.070;8.596;2023-02-15T03:27:55;101804.91;;;0.76;94.21
55070;BME280;40967;52.070;8.596;2023-02-15T03:30:24;101803.72;;;0.79;94.66
55070;BME280;40967;52.070;8.596;2023-02-15T03:32:52;101797.88;;;0.75;94.44
55070;BME280;40967;52.070;8.596;2023-02-15T03:35:21;101803.03;;;0.77;94.80
55070;BME280;40967;52.070;8.596;2023-02-15T03:37:52;101797.88;;;0.75;94.59
55070;BME280;40967;52.070;8.596;2023-02-15T03:40:26;101796.41;;;0.73;94.18
55070;BME280;40967;52.070;8.596;2023-02-15T03:43:32;101796.72;;;0.70;94.90
55070;BME280;40967;52.070;8.596;2023-02-15T03:46:11;101797.09;;;0.67;94.30
55070;BME280;40967;52.070;8.596;2023-02-15T03:48:45;101793.09;;;0.63;94.39
55070;BME280;40967;52.070;8.596;2023-02-15T03:51:22;101786.16;;;0.54;94.93
55070;BME280;40967;52.070;8.596;2023-02-15T03:54:01;101788.34;;;0.50;94.77
55070;BME280;40967;52.070;8.596;2023-02-15T03:56:27;101794.31;;;0.52;94.77
55070;BME280;40967;52.070;8.596;2023-02-15T03:58:53;101791.63;;;0.52;94.85
55070;BME280;40967;52.070;8.596;2023-02-15T04:01:40;101791.16;;;0.49;94.27
55070;BME280;40967;52.070;8.596;2023-02-15T04:04:26;101786.16;;;0.46;94.98
55070;BME280;40967;52.070;8.596;2023-02-15T04:06:53;101781.53;;;0.40;94.97
55070;BME280;40967;52.070;8.596;2023-02-15T04:09:18;101791.38;;;0.39;95.96
55070;BME280;40967;52.070;8.596;2023-02-15T04:12:02;101784.53;;;0.37;95.40
55070;BME280;40967;52.070;8.596;2023-02-15T04:14:28;101780.38;;;0.34;95.70
55070;BME280;40967;52.070;8.596;2023-02-15T04:17:11;101779.06;;;0.30;95.94
55070;BME280;40967;52.070;8.596;2023-02-15T04:19:37;101776.06;;;0.25;96.46
55070;BME280;40967;52.070;8.596;2023-02-15T04:22:21;101765.44;;;0.17;96.87
55070;BME280;40967;52.070;8.596;2023-02-15T04:25:05;101782.56;;;0.23;98.01
55070;BME280;40967;52.070;8.596;2023-02-15T04:27:38;101772.59;;;0.17;97.64
55070;BME280;40967;52.070;8.596;2023-02-15T04:30:04;101762.28;;;0.14;97.70
55070;BME280;40967;52.070;8.596;2023-02-15T04:32:30;101781.28;;;0.19;98.43
55070;BME280;40967;52.070;8.596;2023-02-15T04:34:55;101775.94;;;0.19;98.21
55070;BME280;40967;52.070;8.596;2023-02-15T04:37:21;101774.56;;;0.23;97.95
55070;BME280;40967;52.070;8.596;2023-02-15T04:39:46;101769.88;;;0.25;97.83
55070;BME280;40967;52.070;8.596;2023-02-15T04:42:12;101756.59;;;0.17;97.60
55070;BME280;40967;52.070;8.596;2023-02-15T04:44:37;101762.22;;;0.22;97.15
55070;BME280;40967;52.070;8.596;2023-02-15T04:47:02;101765.59;;;0.16;97.46
55070;BME280;40967;52.070;8.596;2023-02-15T04:49:28;101752.91;;;0.18;97.33
55070;BME280;40967;52.070;8.596;2023-02-15T04:51:53;101752.09;;;0.17;97.98
55070;BME280;40967;52.070;8.596;2023-02-15T04:54:18;101755.25;;;0.13;97.46
55070;BME280;40967;52.070;8.596;2023-02-15T04:56:44;101751.59;;;0.14;97.51
55070;BME280;40967;52.070;8.596;2023-02-15T04:59:10;101752.59;;;0.13;97.36
55070;BME280;40967;52.070;8.596;2023-02-15T05:01:36;101752.75;;;0.11;98.13
55070;BME280;40967;52.070;8.596;2023-02-15T05:04:02;101753.59;;;0.12;98.23
55070;BME280;40967;52.070;8.596;2023-02-15T05:06:27;101743.78;;;0.12;97.92
55070;BME280;40967;52.070;8.596;2023-02-15T05:08:53;101747.06;;;0.14;98.12
55070;BME280;40967;52.070;8.596;2023-02-15T05:11:19;101744.25;;;0.16;97.82
55070;BME280;40967;52.070;8.596;2023-02-15T05:13:44;101726.59;;;0.07;97.41
55070;BME280;40967;52.070;8.596;2023-02-15T05:16:10;101741.59;;;0.16;96.98
55070;BME280;40967;52.070;8.596;2023-02-15T05:18:35;101747.06;;;0.14;96.84
55070;BME280;40967;52.070;8.596;2023-02-15T05:21:02;101744.94;;;0.10;97.49
55070;BME280;40967;52.070;8.596;2023-02-15T05:23:27;101731.63;;;0.02;97.20
55070;BME280;40967;52.070;8.596;2023-02-15T05:25:53;101739.28;;;0.05;97.21
55070;BME280;40967;52.070;8.596;2023-02-15T05:28:37;101754.44;;;0.04;97.35
55070;BME280;40967;52.070;8.596;2023-02-15T05:31:11;101746.31;;;-0.03;97.43
55070;BME280;40967;52.070;8.596;2023-02-15T05:33:38;101752.31;;;-0.01;97.26
55070;BME280;40967;52.070;8.596;2023-02-15T05:36:04;101751.28;;;0.00;97.27
55070;BME280;40967;52.070;8.596;2023-02-15T05:38:30;101733.31;;;-0.06;97.20
55070;BME280;40967;52.070;8.596;2023-02-15T05:40:56;101737.63;;;-0.05;97.05
55070;BME280;40967;52.070;8.596;2023-02-15T05:43:22;101735.16;;;-0.06;96.68
55070;BME280;40967;52.070;8.596;2023-02-15T05:45:49;101732.47;;;-0.06;96.64
55070;BME280;40967;52.070;8.596;2023-02-15T05:48:15;101734.81;;;-0.11;96.42
55070;BME280;40967;52.070;8.596;2023-02-15T05:50:41;101733.81;;;-0.10;96.70
55070;BME280;40967;52.070;8.596;2023-02-15T05:53:06;101743.66;;;-0.11;96.91
55070;BME280;40967;52.070;8.596;2023-02-15T05:55:31;101741.00;;;-0.11;96.88
55070;BME280;40967;52.070;8.596;2023-02-15T05:57:57;101737.97;;;-0.16;97.11
55070;BME280;40967;52.070;8.596;2023-02-15T06:00:22;101743.81;;;-0.12;97.10
55070;BME280;40967;52.070;8.596;2023-02-15T06:02:48;101730.34;;;-0.19;97.08
55070;BME280;40967;52.070;8.596;2023-02-15T06:05:14;101732.34;;;-0.13;96.58
55070;BME280;40967;52.070;8.596;2023-02-15T06:07:39;101737.50;;;-0.11;96.66
55070;BME280;40967;52.070;8.596;2023-02-15T06:10:07;101729.34;;;-0.18;96.79
55070;BME280;40967;52.070;8.596;2023-02-15T06:12:33;101730.66;;;-0.14;96.83
55070;BME280;40967;52.070;8.596;2023-02-15T06:14:58;101730.50;;;-0.20;96.93
55070;BME280;40967;52.070;8.596;2023-02-15T06:17:23;101732.00;;;-0.18;97.21
55070;BME280;40967;52.070;8.596;2023-02-15T06:19:49;101738.16;;;-0.17;97.14
55070;BME280;40967;52.070;8.596;2023-02-15T06:22:14;101738.16;;;-0.17;97.06
55070;BME280;40967;52.070;8.596;2023-02-15T06:24:40;101727.00;;;-0.21;97.53
55070;BME280;40967;52.070;8.596;2023-02-15T06:27:07;101738.34;;;-0.19;97.43
55070;BME280;40967;52.070;8.596;2023-02-15T06:29:32;101730.84;;;-0.23;97.41
55070;BME280;40967;52.070;8.596;2023-02-15T06:31:58;101739.34;;;-0.20;97.52
55070;BME280;40967;52.070;8.596;2023-02-15T06:34:23;101737.34;;;-0.26;97.33
55070;BME280;40967;52.070;8.596;2023-02-15T06:36:49;101742.19;;;-0.21;97.24
55070;BME280;40967;52.070;8.596;2023-02-15T06:39:14;101740.50;;;-0.22;97.31
55070;BME280;40967;52.070;8.596;2023-02-15T06:41:39;101743.34;;;-0.24;97.45
55070;BME280;40967;52.070;8.596;2023-02-15T06:44:05;101732.38;;;-0.29;97.24
55070;BME280;40967;52.070;8.596;2023-02-15T06:46:30;101722.72;;;-0.30;97.14
55070;BME280;40967;52.070;8.596;2023-02-15T06:48:56;101727.88;;;-0.28;97.74
55070;BME280;40967;52.070;8.596;2023-02-15T06:51:21;101726.84;;;-0.27;97.76
55070;BME280;40967;52.070;8.596;2023-02-15T06:53:46;101727.03;;;-0.29;97.29
55070;BME280;40967;52.070;8.596;2023-02-15T06:56:12;101734.00;;;-0.28;97.32
55070;BME280;40967;52.070;8.596;2023-02-15T06:58:39;101742.84;;;-0.27;97.57
55070;BME280;40967;52.070;8.596;2023-02-15T07:01:06;101731.34;;;-0.28;97.34
55070;BME280;40967;52.070;8.596;2023-02-15T07:03:32;101713.38;;;-0.42;97.28
55070;BME280;40967;52.070;8.596;2023-02-15T07:06:00;101721.72;;;-0.37;97.16
55070;BME280;40967;52.070;8.596;2023-02-15T07:08:27;101733.03;;;-0.27;97.42
55070;BME280;40967;52.070;8.596;2023-02-15T07:10:54;101731.19;;;-0.26;97.28
55070;BME280;40967;52.070;8.596;2023-02-15T07:13:20;101724.38;;;-0.29;97.78
55070;BME280;40967;52.070;8.596;2023-02-15T07:15:46;101737.53;;;-0.27;98.34
55070;BME280;40967;52.070;8.596;2023-02-15T07:18:12;101713.72;;;-0.37;98.52
55070;BME280;40967;52.070;8.596;2023-02-15T07:20:38;101734.00;;;-0.28;98.79
55070;BME280;40967;52.070;8.596;2023-02-15T07:23:06;101721.69;;;-0.29;98.88
55070;BME280;40967;52.070;8.596;2023-02-15T07:25:31;101725.34;;;-0.22;99.42
55070;BME280;40967;52.070;8.596;2023-02-15T07:28:00;101704.38;;;-0.33;100.00
55070;BME280;40967;52.070;8.596;2023-02-15T07:30:27;101736.16;;;-0.15;100.00
55070;BME280;40967;52.070;8.596;2023-02-15T07:32:59;101731.13;;;-0.10;100.00
55070;BME280;40967;52.070;8.596;2023-02-15T07:35:50;101721.13;;;-0.08;100.00
55070;BME280;40967;52.070;8.596;2023-02-15T07:38:17;101715.31;;;-0.04;100.00
55070;BME280;40967;52.070;8.596;2023-02-15T07:40:43;101712.44;;;0.06;100.00
55070;BME280;40967;52.070;8.596;2023-02-15T07:43:09;101712.06;;;0.09;100.00
55070;BME280;40967;52.070;8.596;2023-02-15T07:45:34;101721.72;;;0.18;100.00
55070;BME280;40967;52.070;8.596;2023-02-15T07:48:04;101720.84;;;0.26;100.00
55070;BME280;40967;52.070;8.596;2023-02-15T07:50:30;101702.84;;;0.28;100.00
55070;BME280;40967;52.070;8.596;2023-02-15T07:52:55;101700.31;;;0.34;100.00
55070;BME280;40967;52.070;8.596;2023-02-15T07:55:21;101711.19;;;0.55;100.00
55070;BME280;40967;52.070;8.596;2023-02-15T07:57:48;101693.94;;;0.66;100.00
55070;BME280;40967;52.070;8.596;2023-02-15T08:00:16;101697.69;;;0.79;100.00
55070;BME280;40967;52.070;8.596;2023-02-15T08:02:42;101693.59;;;0.91;100.00
55070;BME280;40967;52.070;8.596;2023-02-15T08:05:12;101694.72;;;0.97;100.00
55070;BME280;40967;52.070;8.596;2023-02-15T08:07:37;101701.50;;;1.07;100.00
55070;BME280;40967;52.070;8.596;2023-02-15T08:10:03;101703.91;;;1.17;100.00
55070;BME280;40967;52.070;8.596;2023-02-15T08:12:28;101691.03;;;1.21;100.00
55070;BME280;40967;52.070;8.596;2023-02-15T08:14:54;101692.16;;;1.26;100.00
55070;BME280;40967;52.070;8.596;2023-02-15T08:17:19;101678.69;;;1.34;100.00
55070;BME280;40967;52.070;8.596;2023-02-15T08:19:44;101675.13;;;1.42;100.00
55070;BME280;40967;52.070;8.596;2023-02-15T08:22:13;101684.16;;;1.55;100.00
55070;BME280;40967;52.070;8.596;2023-02-15T08:24:39;101662.41;;;1.58;100.00
55070;BME280;40967;52.070;8.596;2023-02-15T08:27:06;101680.91;;;1.82;100.00
55070;BME280;40967;52.070;8.596;2023-02-15T08:29:32;101669.78;;;2.00;100.00
55070;BME280;40967;52.070;8.596;2023-02-15T08:32:00;101667.75;;;2.16;100.00
55070;BME280;40967;52.070;8.596;2023-02-15T08:34:31;101661.53;;;2.30;100.00
55070;BME280;40967;52.070;8.596;2023-02-15T08:36:57;101663.63;;;2.50;100.00
55070;BME280;40967;52.070;8.596;2023-02-15T08:39:23;101641.88;;;2.59;100.00
55070;BME280;40967;52.070;8.596;2023-02-15T08:41:48;101653.88;;;2.84;100.00
55070;BME280;40967;52.070;8.596;2023-02-15T08:44:16;101658.81;;;3.02;99.64
55070;BME280;40967;52.070;8.596;2023-02-15T08:46:43;101651.66;;;3.09;99.06
55070;BME280;40967;52.070;8.596;2023-02-15T08:49:12;101655.94;;;3.31;98.34
55070;BME280;40967;52.070;8.596;2023-02-15T08:51:38;101630.09;;;3.23;97.49
55070;BME280;40967;52.070;8.596;2023-02-15T08:54:07;101640.72;;;3.38;97.10
55070;BME280;40967;52.070;8.596;2023-02-15T08:56:37;101651.41;;;3.59;97.03
55070;BME280;40967;52.070;8.596;2023-02-15T08:59:05;101651.91;;;3.76;97.01
55070;BME280;40967;52.070;8.596;2023-02-15T09:01:32;101648.50;;;3.95;95.91
55070;BME280;40967;52.070;8.596;2023-02-15T09:04:03;101649.16;;;4.03;95.42
55070;BME280;40967;52.070;8.596;2023-02-15T09:06:34;101645.38;;;4.25;95.07
55070;BME280;40967;52.070;8.596;2023-02-15T09:08:59;101653.72;;;4.50;94.71
55070;BME280;40967;52.070;8.596;2023-02-15T09:11:27;101652.09;;;4.75;93.26
55070;BME280;40967;52.070;8.596;2023-02-15T09:13:58;101649.25;;;4.96;91.37
55070;BME280;40967;52.070;8.596;2023-02-15T09:16:26;101650.28;;;5.08;90.68
55070;BME280;40967;52.070;8.596;2023-02-15T09:18:52;101646.56;;;5.16;90.09
55070;BME280;40967;52.070;8.596;2023-02-15T09:21:20;101644.09;;;5.27;90.23
55070;BME280;40967;52.070;8.596;2023-02-15T09:23:48;101641.38;;;5.34;90.21
55070;BME280;40967;52.070;8.596;2023-02-15T09:26:19;101642.63;;;5.44;90.12
55070;BME280;40967;52.070;8.596;2023-02-15T09:28:46;101640.72;;;5.58;89.63
55070;BME280;40967;52.070;8.596;2023-02-15T09:31:14;101633.47;;;5.65;89.02
55070;BME280;40967;52.070;8.596;2023-02-15T09:33:41;101641.53;;;5.91;89.06
55070;BME280;40967;52.070;8.596;2023-02-15T09:36:18;101643.91;;;6.25;87.23
55070;BME280;40967;52.070;8.596;2023-02-15T09:38:45;101638.19;;;6.46;85.40
55070;BME280;40967;52.070;8.596;2023-02-15T09:46:22;101628.56;;;6.95;81.94
55070;BME280;40967;52.070;8.596;2023-02-15T09:48:56;101632.81;;;7.09;81.08
55070;BME280;40967;52.070;8.596;2023-02-15T09:51:35;101618.03;;;7.11;80.42
55070;BME280;40967;52.070;8.596;2023-02-15T09:54:13;101603.53;;;7.12;79.98
55070;BME280;40967;52.070;8.596;2023-02-15T10:00:31;101613.41;;;7.43;79.01
55070;BME280;40967;52.070;8.596;2023-02-15T10:05:48;101607.75;;;7.69;79.66
55070;BME280;40967;52.070;8.596;2023-02-15T10:08:40;101619.38;;;7.87;78.32
55070;BME280;40967;52.070;8.596;2023-02-15T10:14:23;101613.13;;;8.05;77.41
55070;BME280;40967;52.070;8.596;2023-02-15T10:20:22;101616.16;;;8.33;76.06
55070;BME280;40967;52.070;8.596;2023-02-15T10:27:54;101598.25;;;8.62;75.34
55070;BME280;40967;52.070;8.596;2023-02-15T10:33:40;101611.75;;;8.91;74.76
55070;BME280;40967;52.070;8.596;2023-02-15T10:38:42;101613.72;;;9.26;73.72
55070;BME280;40967;52.070;8.596;2023-02-15T10:44:34;101611.69;;;9.79;72.85
55070;BME280;40967;52.070;8.596;2023-02-15T10:47:12;101607.28;;;10.01;71.44
55070;BME280;40967;52.070;8.596;2023-02-15T10:49:55;101607.41;;;10.06;70.19
55070;BME280;40967;52.070;8.596;2023-02-15T10:55:34;101583.53;;;10.31;69.24
55070;BME280;40967;52.070;8.596;2023-02-15T10:58:24;101582.56;;;10.37;69.09
55070;BME280;40967;52.070;8.596;2023-02-15T11:06:08;101572.91;;;10.58;67.34
55070;BME280;40967;52.070;8.596;2023-02-15T11:08:44;101579.25;;;10.63;66.71
55070;BME280;40967;52.070;8.596;2023-02-15T11:11:15;101579.00;;;10.65;66.36
55070;BME280;40967;52.070;8.596;2023-02-15T11:13:48;101572.69;;;10.76;66.89
55070;BME280;40967;52.070;8.596;2023-02-15T11:16:18;101583.16;;;10.84;66.64
55070;BME280;40967;52.070;8.596;2023-02-15T11:21:24;101560.19;;;11.08;66.24
55070;BME280;40967;52.070;8.596;2023-02-15T11:23:51;101576.22;;;11.26;66.06
55070;BME280;40967;52.070;8.596;2023-02-15T11:26:24;101559.94;;;11.26;65.85
55070;BME280;40967;52.070;8.596;2023-02-15T11:29:09;101565.03;;;11.39;65.45
55070;BME280;40967;52.070;8.596;2023-02-15T11:31:45;101559.00;;;11.37;65.46
55070;BME280;40967;52.070;8.596;2023-02-15T11:37:05;101554.19;;;11.61;64.32
55070;BME280;40967;52.070;8.596;2023-02-15T11:39:33;101553.78;;;11.69;64.11
55070;BME280;40967;52.070;8.596;2023-02-15T11:42:04;101560.13;;;11.74;63.74
55070;BME280;40967;52.070;8.596;2023-02-15T11:47:14;101547.28;;;11.91;63.30
55070;BME280;40967;52.070;8.596;2023-02-15T11:49:40;101558.66;;;12.10;62.88
55070;BME280;40967;52.070;8.596;2023-02-15T11:52:07;101550.06;;;12.18;62.95
55070;BME280;40967;52.070;8.596;2023-02-15T11:54:37;101554.16;;;12.20;63.44
55070;BME280;40967;52.070;8.596;2023-02-15T11:59:37;101535.44;;;12.24;63.12
55070;BME280;40967;52.070;8.596;2023-02-15T12:02:19;101536.34;;;12.34;62.56
55070;BME280;40967;52.070;8.596;2023-02-15T12:04:58;101533.41;;;12.41;62.33
55070;BME280;40967;52.070;8.596;2023-02-15T12:07:32;101523.47;;;12.51;61.91
55070;BME280;40967;52.070;8.596;2023-02-15T12:10:24;101531.22;;;12.65;61.74
55070;BME280;40967;52.070;8.596;2023-02-15T12:13:10;101528.00;;;12.73;61.77
55070;BME280;40967;52.070;8.596;2023-02-15T12:15:37;101531.59;;;12.78;61.56
55070;BME280;40967;52.070;8.596;2023-02-15T12:18:04;101523.50;;;12.88;61.57
55070;BME280;40967;52.070;8.596;2023-02-15T12:20:32;101517.03;;;12.94;61.66
55070;BME280;40967;52.070;8.596;2023-02-15T12:23:06;101510.53;;;13.00;62.49
55070;BME280;40967;52.070;8.596;2023-02-15T12:30:45;101512.09;;;13.23;60.99
55070;BME280;40967;52.070;8.596;2023-02-15T12:33:21;101508.59;;;13.27;60.16
55070;BME280;40967;52.070;8.596;2023-02-15T12:36:11;101498.72;;;13.21;60.51
55070;BME280;40967;52.070;8.596;2023-02-15T12:38:37;101504.19;;;13.21;59.86
55070;BME280;40967;52.070;8.596;2023-02-15T12:41:04;101489.69;;;13.16;59.78
55070;BME280;40967;52.070;8.596;2023-02-15T12:43:36;101498.47;;;13.23;59.43
55070;BME280;40967;52.070;8.596;2023-02-15T12:46:23;101498.19;;;13.24;59.40
55070;BME280;40967;52.070;8.596;2023-02-15T12:51:56;101481.81;;;13.19;59.83
55070;BME280;40967;52.070;8.596;2023-02-15T12:56:47;101462.13;;;13.07;59.74
55070;BME280;40967;52.070;8.596;2023-02-15T12:59:14;101464.88;;;13.12;59.95
55070;BME280;40967;52.070;8.596;2023-02-15T13:01:45;101468.41;;;13.08;59.88
55070;BME280;40967;52.070;8.596;2023-02-15T13:04:25;101460.19;;;13.03;60.40
55070;BME280;40967;52.070;8.596;2023-02-15T13:07:02;101464.53;;;13.04;60.29
55070;BME280;40967;52.070;8.596;2023-02-15T13:12:09;101457.66;;;12.96;60.77
55070;BME280;40967;52.070;8.596;2023-02-15T13:14:35;101452.16;;;12.91;60.95
55070;BME280;40967;52.070;8.596;2023-02-15T13:17:03;101452.13;;;12.86;60.38
55070;BME280;40967;52.070;8.596;2023-02-15T13:19:36;101462.44;;;12.79;61.69
55070;BME280;40967;52.070;8.596;2023-02-15T13:22:20;101457.25;;;12.78;62.40
55070;BME280;40967;52.070;8.596;2023-02-15T13:24:50;101445.50;;;12.72;61.83
55070;BME280;40967;52.070;8.596;2023-02-15T13:27:20;101458.13;;;12.83;61.35
55070;BME280;40967;52.070;8.596;2023-02-15T13:29:55;101444.47;;;12.78;61.50
55070;BME280;40967;52.070;8.596;2023-02-15T13:32:28;101448.25;;;12.77;61.94
55070;BME280;40967;52.070;8.596;2023-02-15T13:34:57;101434.09;;;12.75;61.70
55070;BME280;40967;52.070;8.596;2023-02-15T13:40:08;101434.16;;;12.85;61.38
55070;BME280;40967;52.070;8.596;2023-02-15T13:42:40;101444.53;;;12.88;61.73
55070;BME280;40967;52.070;8.596;2023-02-15T13:48:11;101428.22;;;12.93;61.55
55070;BME280;40967;52.070;8.596;2023-02-15T13:53:49;101419.28;;;12.98;61.49
55070;BME280;40967;52.070;8.596;2023-02-15T13:56:51;101417.06;;;13.00;62.06
55070;BME280;40967;52.070;8.596;2023-02-15T14:02:23;101413.38;;;13.11;62.00
55070;BME280;40967;52.070;8.596;2023-02-15T14:15:31;101398.66;;;13.12;63.15
55070;BME280;40967;52.070;8.596;2023-02-15T14:31:46;101389.16;;;13.19;63.68
55070;BME280;40967;52.070;8.596;2023-02-15T14:34:26;101389.16;;;13.19;63.64
55070;BME280;40967;52.070;8.596;2023-02-15T14:36:56;101386.44;;;13.19;63.91
55070;BME280;40967;52.070;8.596;2023-02-15T14:42:24;101384.28;;;13.26;63.86
55070;BME280;40967;52.070;8.596;2023-02-15T14:45:05;101387.84;;;13.27;63.89
55070;BME280;40967;52.070;8.596;2023-02-15T14:47:37;101385.94;;;13.27;63.62
55070;BME280;40967;52.070;8.596;2023-02-15T14:58:29;101377.03;;;13.00;63.60
55070;BME280;40967;52.070;8.596;2023-02-15T15:01:04;101367.97;;;12.85;63.40
55070;BME280;40967;52.070;8.596;2023-02-15T15:03:31;101378.03;;;12.84;63.63
55070;BME280;40967;52.070;8.596;2023-02-15T15:05:59;101383.44;;;12.74;63.57
55070;BME280;40967;52.070;8.596;2023-02-15T15:08:32;101376.81;;;12.65;64.21
55070;BME280;40967;52.070;8.596;2023-02-15T15:13:57;101372.06;;;12.40;63.84
55070;BME280;40967;52.070;8.596;2023-02-15T15:19:01;101371.06;;;12.25;64.37
55070;BME280;40967;52.070;8.596;2023-02-15T15:33:13;101361.84;;;11.68;65.89
55070;BME280;40967;52.070;8.596;2023-02-15T15:36:09;101367.72;;;11.60;66.20
55070;BME280;40967;52.070;8.596;2023-02-15T15:41:48;101362.88;;;11.40;67.04
55070;BME280;40967;52.070;8.596;2023-02-15T15:44:31;101367.94;;;11.31;67.31
55070;BME280;40967;52.070;8.596;2023-02-15T15:47:27;101363.47;;;11.20;67.84
55070;BME280;40967;52.070;8.596;2023-02-15T15:49:58;101355.44;;;11.09;67.96
55070;BME280;40967;52.070;8.596;2023-02-15T15:52:26;101349.63;;;11.00;68.39
55070;BME280;40967;52.070;8.596;2023-02-15T15:55:03;101351.69;;;10.93;68.45
55070;BME280;40967;52.070;8.596;2023-02-15T15:57:33;101349.69;;;10.84;68.78
55070;BME280;40967;52.070;8.596;2023-02-15T16:00:00;101349.28;;;10.75;68.76
55070;BME280;40967;52.070;8.596;2023-02-15T16:02:25;101345.94;;;10.68;69.30